sensor_id;sensor_type;location;lat;lon;timestamp;P1;durP1;ratioP1;P2;durP2;ratioP2
49217;SDS011;35045;51.194;7.268;2023-03-23T00:00:43;7.53;;;2.83;;
49217;SDS011;35045;51.194;7.268;2023-03-23T00:03:09;7.32;;;2.95;;
49217;SDS011;35045;51.194;7.268;2023-03-23T00:05:34;7.25;;;2.70;;
49217;SDS011;35045;51.194;7.268;2023-03-23T00:08:01;5.93;;;3.00;;
49217;SDS011;35045;51.194;7.268;2023-03-23T00:10:26;7.55;;;2.63;;
49217;SDS011;35045;51.194;7.268;2023-03-23T00:12:51;6.25;;;2.58;;
49217;SDS011;35045;51.194;7.268;2023-03-23T00:15:16;5.90;;;2.25;;
49217;SDS011;35045;51.194;7.268;2023-03-23T00:17:41;6.57;;;2.55;;
49217;SDS011;35045;51.194;7.268;2023-03-23T00:20:08;6.65;;;2.30;;
49217;SDS011;35045;51.194;7.268;2023-03-23T00:22:35;6.88;;;2.90;;
49217;SDS011;35045;51.194;7.268;2023-03-23T00:25:02;6.97;;;2.42;;
49217;SDS011;35045;51.194;7.268;2023-03-23T00:27:28;6.18;;;2.40;;
49217;SDS011;35045;51.194;7.268;2023-03-23T00:29:53;7.90;;;2.65;;
49217;SDS011;35045;51.194;7.268;2023-03-23T00:32:18;7.78;;;2.45;;
49217;SDS011;35045;51.194;7.268;2023-03-23T00:34:51;5.38;;;2.20;;
49217;SDS011;35045;51.194;7.268;2023-03-23T00:37:16;6.88;;;2.13;;
49217;SDS011;35045;51.194;7.268;2023-03-23T00:39:41;5.78;;;2.42;;
49217;SDS011;35045;51.194;7.268;2023-03-23T00:42:10;6.55;;;2.28;;
49217;SDS011;35045;51.194;7.268;2023-03-23T00:44:36;7.28;;;2.53;;
49217;SDS011;35045;51.194;7.268;2023-03-23T00:47:02;6.97;;;2.47;;
49217;SDS011;35045;51.194;7.268;2023-03-23T00:51:52;4.72;;;2.10;;
49217;SDS011;35045;51.194;7.268;2023-03-23T00:54:19;5.75;;;2.20;;
49217;SDS011;35045;51.194;7.268;2023-03-23T00:59:09;5.95;;;2.50;;
49217;SDS011;35045;51.194;7.268;2023-03-23T01:01:34;5.25;;;2.25;;
49217;SDS011;35045;51.194;7.268;2023-03-23T01:06:33;5.03;;;1.90;;
49217;SDS011;35045;51.194;7.268;2023-03-23T01:08:59;5.13;;;2.10;;
49217;SDS011;35045;51.194;7.268;2023-03-23T01:11:27;4.85;;;1.77;;
49217;SDS011;35045;51.194;7.268;2023-03-23T01:13:52;4.75;;;2.08;;
49217;SDS011;35045;51.194;7.268;2023-03-23T01:16:17;4.50;;;1.88;;
49217;SDS011;35045;51.194;7.268;2023-03-23T01:18:43;7.18;;;2.13;;
49217;SDS011;35045;51.194;7.268;2023-03-23T01:21:09;7.07;;;2.30;;
49217;SDS011;35045;51.194;7.268;2023-03-23T01:23:36;4.60;;;2.00;;
49217;SDS011;35045;51.194;7.268;2023-03-23T01:26:02;6.65;;;2.00;;
49217;SDS011;35045;51.194;7.268;2023-03-23T01:28:32;5.60;;;2.03;;
49217;SDS011;35045;51.194;7.268;2023-03-23T01:31:05;5.32;;;2.20;;
49217;SDS011;35045;51.194;7.268;2023-03-23T01:33:32;5.68;;;1.80;;
49217;SDS011;35045;51.194;7.268;2023-03-23T01:38:27;5.25;;;2.10;;
49217;SDS011;35045;51.194;7.268;2023-03-23T01:40:52;4.47;;;1.92;;
49217;SDS011;35045;51.194;7.268;2023-03-23T01:43:17;5.55;;;2.10;;
49217;SDS011;35045;51.194;7.268;2023-03-23T01:45:42;5.78;;;1.85;;
49217;SDS011;35045;51.194;7.268;2023-03-23T01:50:47;5.32;;;1.80;;
49217;SDS011;35045;51.194;7.268;2023-03-23T01:53:28;6.82;;;2.13;;
49217;SDS011;35045;51.194;7.268;2023-03-23T01:55:59;6.05;;;2.10;;
49217;SDS011;35045;51.194;7.268;2023-03-23T01:58:27;5.65;;;1.98;;
49217;SDS011;35045;51.194;7.268;2023-03-23T02:00:57;6.15;;;2.13;;
49217;SDS011;35045;51.194;7.268;2023-03-23T02:03:25;5.90;;;2.40;;
49217;SDS011;35045;51.194;7.268;2023-03-23T02:08:15;5.68;;;2.35;;
49217;SDS011;35045;51.194;7.268;2023-03-23T02:10:42;5.55;;;2.10;;
49217;SDS011;35045;51.194;7.268;2023-03-23T02:13:08;5.68;;;2.45;;
49217;SDS011;35045;51.194;7.268;2023-03-23T02:15:45;6.25;;;2.33;;
49217;SDS011;35045;51.194;7.268;2023-03-23T02:18:42;6.18;;;2.28;;
49217;SDS011;35045;51.194;7.268;2023-03-23T02:24:46;6.20;;;2.45;;
49217;SDS011;35045;51.194;7.268;2023-03-23T02:27:46;6.05;;;2.20;;
49217;SDS011;35045;51.194;7.268;2023-03-23T02:41:31;7.05;;;2.75;;
49217;SDS011;35045;51.194;7.268;2023-03-23T02:43:58;5.53;;;2.42;;
49217;SDS011;35045;51.194;7.268;2023-03-23T02:46:27;5.80;;;2.42;;
49217;SDS011;35045;51.194;7.268;2023-03-23T02:48:53;5.80;;;2.42;;
49217;SDS011;35045;51.194;7.268;2023-03-23T02:51:22;5.72;;;2.72;;
49217;SDS011;35045;51.194;7.268;2023-03-23T02:53:48;5.85;;;2.25;;
49217;SDS011;35045;51.194;7.268;2023-03-23T02:56:16;5.50;;;2.55;;
49217;SDS011;35045;51.194;7.268;2023-03-23T02:58:43;6.13;;;2.30;;
49217;SDS011;35045;51.194;7.268;2023-03-23T03:04:12;5.43;;;2.60;;
49217;SDS011;35045;51.194;7.268;2023-03-23T03:09:25;5.30;;;2.67;;
49217;SDS011;35045;51.194;7.268;2023-03-23T03:11:59;6.68;;;3.22;;
49217;SDS011;35045;51.194;7.268;2023-03-23T03:14:33;7.03;;;2.83;;
49217;SDS011;35045;51.194;7.268;2023-03-23T03:17:24;7.45;;;2.60;;
49217;SDS011;35045;51.194;7.268;2023-03-23T03:19:51;5.38;;;2.60;;
49217;SDS011;35045;51.194;7.268;2023-03-23T03:22:21;5.32;;;2.58;;
49217;SDS011;35045;51.194;7.268;2023-03-23T03:24:53;4.35;;;2.10;;
49217;SDS011;35045;51.194;7.268;2023-03-23T03:27:21;5.95;;;2.30;;
49217;SDS011;35045;51.194;7.268;2023-03-23T03:29:49;5.85;;;2.80;;
49217;SDS011;35045;51.194;7.268;2023-03-23T03:32:21;5.15;;;2.00;;
49217;SDS011;35045;51.194;7.268;2023-03-23T03:34:50;7.03;;;2.53;;
49217;SDS011;35045;51.194;7.268;2023-03-23T03:37:17;5.82;;;2.30;;
49217;SDS011;35045;51.194;7.268;2023-03-23T03:39:43;5.93;;;2.30;;
49217;SDS011;35045;51.194;7.268;2023-03-23T03:42:08;4.70;;;2.05;;
49217;SDS011;35045;51.194;7.268;2023-03-23T03:44:33;5.13;;;2.33;;
49217;SDS011;35045;51.194;7.268;2023-03-23T03:49:24;6.05;;;2.50;;
49217;SDS011;35045;51.194;7.268;2023-03-23T03:51:50;5.82;;;2.28;;
49217;SDS011;35045;51.194;7.268;2023-03-23T03:54:15;4.90;;;2.40;;
49217;SDS011;35045;51.194;7.268;2023-03-23T03:56:40;4.95;;;1.90;;
49217;SDS011;35045;51.194;7.268;2023-03-23T03:59:06;5.13;;;2.03;;
49217;SDS011;35045;51.194;7.268;2023-03-23T04:01:33;5.35;;;2.05;;
49217;SDS011;35045;51.194;7.268;2023-03-23T04:03:59;5.55;;;2.15;;
49217;SDS011;35045;51.194;7.268;2023-03-23T04:08:52;4.47;;;1.92;;
49217;SDS011;35045;51.194;7.268;2023-03-23T04:11:17;5.20;;;2.47;;
49217;SDS011;35045;51.194;7.268;2023-03-23T04:13:42;5.93;;;2.45;;
49217;SDS011;35045;51.194;7.268;2023-03-23T04:16:07;4.05;;;1.88;;
49217;SDS011;35045;51.194;7.268;2023-03-23T04:18:33;4.90;;;2.10;;
49217;SDS011;35045;51.194;7.268;2023-03-23T04:20:59;4.35;;;1.88;;
49217;SDS011;35045;51.194;7.268;2023-03-23T04:23:26;3.75;;;1.85;;
49217;SDS011;35045;51.194;7.268;2023-03-23T04:25:52;5.38;;;1.92;;
49217;SDS011;35045;51.194;7.268;2023-03-23T04:28:21;5.40;;;1.90;;
49217;SDS011;35045;51.194;7.268;2023-03-23T04:30:47;5.93;;;2.03;;
49217;SDS011;35045;51.194;7.268;2023-03-23T04:33:13;4.47;;;1.73;;
49217;SDS011;35045;51.194;7.268;2023-03-23T04:35:38;4.78;;;2.00;;
49217;SDS011;35045;51.194;7.268;2023-03-23T04:38:03;4.90;;;2.00;;
49217;SDS011;35045;51.194;7.268;2023-03-23T04:40:29;5.65;;;2.00;;
49217;SDS011;35045;51.194;7.268;2023-03-23T04:42:54;4.63;;;2.10;;
49217;SDS011;35045;51.194;7.268;2023-03-23T04:45:21;3.90;;;1.70;;
49217;SDS011;35045;51.194;7.268;2023-03-23T04:47:47;4.82;;;2.00;;
49217;SDS011;35045;51.194;7.268;2023-03-23T04:50:17;4.32;;;1.98;;
49217;SDS011;35045;51.194;7.268;2023-03-23T04:52:43;4.20;;;1.73;;
49217;SDS011;35045;51.194;7.268;2023-03-23T04:55:09;4.30;;;1.83;;
49217;SDS011;35045;51.194;7.268;2023-03-23T04:57:34;4.32;;;2.08;;
49217;SDS011;35045;51.194;7.268;2023-03-23T04:59:59;5.10;;;2.00;;
49217;SDS011;35045;51.194;7.268;2023-03-23T05:02:25;4.43;;;1.88;;
49217;SDS011;35045;51.194;7.268;2023-03-23T05:04:54;5.00;;;2.25;;
49217;SDS011;35045;51.194;7.268;2023-03-23T05:07:19;4.78;;;2.00;;
49217;SDS011;35045;51.194;7.268;2023-03-23T05:09:47;4.20;;;2.10;;
49217;SDS011;35045;51.194;7.268;2023-03-23T05:12:13;6.25;;;2.15;;
49217;SDS011;35045;51.194;7.268;2023-03-23T05:14:40;5.80;;;2.00;;
49217;SDS011;35045;51.194;7.268;2023-03-23T05:17:06;5.47;;;2.35;;
49217;SDS011;35045;51.194;7.268;2023-03-23T05:19:31;4.82;;;2.08;;
49217;SDS011;35045;51.194;7.268;2023-03-23T05:21:57;6.18;;;2.10;;
49217;SDS011;35045;51.194;7.268;2023-03-23T05:24:27;5.53;;;2.05;;
49217;SDS011;35045;51.194;7.268;2023-03-23T05:26:55;5.43;;;2.20;;
49217;SDS011;35045;51.194;7.268;2023-03-23T05:29:20;5.00;;;2.05;;
49217;SDS011;35045;51.194;7.268;2023-03-23T05:31:48;5.28;;;2.17;;
49217;SDS011;35045;51.194;7.268;2023-03-23T05:34:13;4.40;;;2.13;;
49217;SDS011;35045;51.194;7.268;2023-03-23T05:36:38;5.88;;;2.17;;
49217;SDS011;35045;51.194;7.268;2023-03-23T05:39:03;5.20;;;2.13;;
49217;SDS011;35045;51.194;7.268;2023-03-23T05:41:28;6.13;;;2.08;;
49217;SDS011;35045;51.194;7.268;2023-03-23T05:43:53;5.45;;;2.60;;
49217;SDS011;35045;51.194;7.268;2023-03-23T05:46:18;4.88;;;2.33;;
49217;SDS011;35045;51.194;7.268;2023-03-23T05:48:43;5.32;;;2.53;;
49217;SDS011;35045;51.194;7.268;2023-03-23T05:51:08;4.95;;;2.30;;
49217;SDS011;35045;51.194;7.268;2023-03-23T05:53:34;7.32;;;2.67;;
49217;SDS011;35045;51.194;7.268;2023-03-23T05:56:00;6.03;;;1.92;;
49217;SDS011;35045;51.194;7.268;2023-03-23T05:58:26;4.45;;;2.13;;
49217;SDS011;35045;51.194;7.268;2023-03-23T06:00:51;4.45;;;2.10;;
49217;SDS011;35045;51.194;7.268;2023-03-23T06:03:16;5.25;;;2.28;;
49217;SDS011;35045;51.194;7.268;2023-03-23T06:05:42;5.47;;;2.00;;
49217;SDS011;35045;51.194;7.268;2023-03-23T06:08:11;6.60;;;2.50;;
49217;SDS011;35045;51.194;7.268;2023-03-23T06:10:36;5.70;;;2.25;;
49217;SDS011;35045;51.194;7.268;2023-03-23T06:13:01;5.20;;;2.47;;
49217;SDS011;35045;51.194;7.268;2023-03-23T06:15:27;7.22;;;2.20;;
49217;SDS011;35045;51.194;7.268;2023-03-23T06:17:57;6.63;;;2.53;;
49217;SDS011;35045;51.194;7.268;2023-03-23T06:20:27;5.00;;;2.20;;
49217;SDS011;35045;51.194;7.268;2023-03-23T06:22:52;6.38;;;2.35;;
49217;SDS011;35045;51.194;7.268;2023-03-23T06:25:17;6.13;;;2.55;;
49217;SDS011;35045;51.194;7.268;2023-03-23T06:27:42;5.13;;;2.70;;
49217;SDS011;35045;51.194;7.268;2023-03-23T06:30:08;7.82;;;2.35;;
49217;SDS011;35045;51.194;7.268;2023-03-23T06:32:34;6.47;;;2.40;;
49217;SDS011;35045;51.194;7.268;2023-03-23T06:35:00;5.63;;;2.45;;
49217;SDS011;35045;51.194;7.268;2023-03-23T06:37:25;6.05;;;2.30;;
49217;SDS011;35045;51.194;7.268;2023-03-23T06:39:50;5.97;;;2.22;;
49217;SDS011;35045;51.194;7.268;2023-03-23T06:42:16;5.95;;;2.10;;
49217;SDS011;35045;51.194;7.268;2023-03-23T06:44:41;5.90;;;2.35;;
49217;SDS011;35045;51.194;7.268;2023-03-23T06:47:06;5.03;;;2.20;;
49217;SDS011;35045;51.194;7.268;2023-03-23T06:51:57;5.80;;;2.33;;
49217;SDS011;35045;51.194;7.268;2023-03-23T06:54:24;6.45;;;2.40;;
49217;SDS011;35045;51.194;7.268;2023-03-23T06:56:49;4.82;;;2.13;;
49217;SDS011;35045;51.194;7.268;2023-03-23T06:59:14;5.45;;;2.33;;
49217;SDS011;35045;51.194;7.268;2023-03-23T07:01:40;7.15;;;2.50;;
49217;SDS011;35045;51.194;7.268;2023-03-23T07:04:05;8.75;;;2.20;;
49217;SDS011;35045;51.194;7.268;2023-03-23T07:06:30;6.18;;;2.08;;
49217;SDS011;35045;51.194;7.268;2023-03-23T07:11:20;5.72;;;2.13;;
49217;SDS011;35045;51.194;7.268;2023-03-23T07:13:45;5.50;;;1.85;;
49217;SDS011;35045;51.194;7.268;2023-03-23T07:16:10;4.80;;;2.25;;
49217;SDS011;35045;51.194;7.268;2023-03-23T07:18:36;5.15;;;2.15;;
49217;SDS011;35045;51.194;7.268;2023-03-23T07:21:01;6.55;;;2.33;;
49217;SDS011;35045;51.194;7.268;2023-03-23T07:23:28;5.63;;;2.10;;
49217;SDS011;35045;51.194;7.268;2023-03-23T07:25:53;6.15;;;2.10;;
49217;SDS011;35045;51.194;7.268;2023-03-23T07:28:19;8.68;;;2.30;;
49217;SDS011;35045;51.194;7.268;2023-03-23T07:30:44;6.10;;;2.58;;
49217;SDS011;35045;51.194;7.268;2023-03-23T07:33:09;6.05;;;2.10;;
49217;SDS011;35045;51.194;7.268;2023-03-23T07:35:35;7.18;;;2.45;;
49217;SDS011;35045;51.194;7.268;2023-03-23T07:38:01;5.88;;;2.67;;
49217;SDS011;35045;51.194;7.268;2023-03-23T07:40:26;6.40;;;2.60;;
49217;SDS011;35045;51.194;7.268;2023-03-23T07:45:18;5.38;;;2.05;;
49217;SDS011;35045;51.194;7.268;2023-03-23T07:47:43;6.57;;;2.15;;
49217;SDS011;35045;51.194;7.268;2023-03-23T07:50:08;7.70;;;2.60;;
49217;SDS011;35045;51.194;7.268;2023-03-23T07:52:35;4.80;;;2.17;;
49217;SDS011;35045;51.194;7.268;2023-03-23T07:55:00;6.65;;;2.30;;
49217;SDS011;35045;51.194;7.268;2023-03-23T07:57:26;5.80;;;2.70;;
49217;SDS011;35045;51.194;7.268;2023-03-23T07:59:52;5.65;;;2.30;;
49217;SDS011;35045;51.194;7.268;2023-03-23T08:02:17;6.97;;;2.08;;
49217;SDS011;35045;51.194;7.268;2023-03-23T08:04:42;6.25;;;2.05;;
49217;SDS011;35045;51.194;7.268;2023-03-23T08:07:09;7.53;;;2.08;;
49217;SDS011;35045;51.194;7.268;2023-03-23T08:09:36;4.88;;;1.85;;
49217;SDS011;35045;51.194;7.268;2023-03-23T08:12:02;5.90;;;2.10;;
49217;SDS011;35045;51.194;7.268;2023-03-23T08:16:52;4.75;;;1.88;;
49217;SDS011;35045;51.194;7.268;2023-03-23T08:19:20;5.32;;;1.90;;
49217;SDS011;35045;51.194;7.268;2023-03-23T08:21:46;6.25;;;2.25;;
49217;SDS011;35045;51.194;7.268;2023-03-23T08:24:11;6.75;;;1.60;;
49217;SDS011;35045;51.194;7.268;2023-03-23T08:26:36;5.15;;;1.70;;
49217;SDS011;35045;51.194;7.268;2023-03-23T08:29:02;6.20;;;1.90;;
49217;SDS011;35045;51.194;7.268;2023-03-23T08:31:28;9.23;;;1.88;;
49217;SDS011;35045;51.194;7.268;2023-03-23T08:33:53;7.45;;;1.88;;
49217;SDS011;35045;51.194;7.268;2023-03-23T08:36:20;6.75;;;1.80;;
49217;SDS011;35045;51.194;7.268;2023-03-23T08:38:46;5.85;;;1.90;;
49217;SDS011;35045;51.194;7.268;2023-03-23T08:41:11;6.88;;;2.20;;
49217;SDS011;35045;51.194;7.268;2023-03-23T08:43:36;5.88;;;1.65;;
49217;SDS011;35045;51.194;7.268;2023-03-23T08:46:02;4.30;;;1.67;;
49217;SDS011;35045;51.194;7.268;2023-03-23T08:48:31;7.85;;;1.88;;
49217;SDS011;35045;51.194;7.268;2023-03-23T08:50:57;6.55;;;1.80;;
49217;SDS011;35045;51.194;7.268;2023-03-23T08:53:23;5.32;;;1.60;;
49217;SDS011;35045;51.194;7.268;2023-03-23T08:55:48;7.32;;;1.70;;
49217;SDS011;35045;51.194;7.268;2023-03-23T09:00:39;5.80;;;2.28;;
49217;SDS011;35045;51.194;7.268;2023-03-23T09:03:04;5.40;;;1.75;;
49217;SDS011;35045;51.194;7.268;2023-03-23T09:05:29;7.03;;;1.95;;
49217;SDS011;35045;51.194;7.268;2023-03-23T09:10:23;4.80;;;1.55;;
49217;SDS011;35045;51.194;7.268;2023-03-23T09:12:48;4.82;;;1.80;;
49217;SDS011;35045;51.194;7.268;2023-03-23T09:15:15;7.32;;;2.03;;
49217;SDS011;35045;51.194;7.268;2023-03-23T09:17:43;10.50;;;2.83;;
49217;SDS011;35045;51.194;7.268;2023-03-23T09:20:10;6.10;;;1.80;;
49217;SDS011;35045;51.194;7.268;2023-03-23T09:22:38;5.85;;;1.58;;
49217;SDS011;35045;51.194;7.268;2023-03-23T09:25:04;6.55;;;1.52;;
49217;SDS011;35045;51.194;7.268;2023-03-23T09:27:30;6.25;;;2.00;;
49217;SDS011;35045;51.194;7.268;2023-03-23T09:29:55;3.80;;;1.52;;
49217;SDS011;35045;51.194;7.268;2023-03-23T09:32:20;6.95;;;1.75;;
49217;SDS011;35045;51.194;7.268;2023-03-23T09:34:47;5.40;;;1.70;;
49217;SDS011;35045;51.194;7.268;2023-03-23T09:37:12;6.43;;;1.65;;
49217;SDS011;35045;51.194;7.268;2023-03-23T09:39:38;5.65;;;1.95;;
49217;SDS011;35045;51.194;7.268;2023-03-23T09:42:11;7.43;;;2.00;;
49217;SDS011;35045;51.194;7.268;2023-03-23T09:47:32;6.37;;;1.90;;
49217;SDS011;35045;51.194;7.268;2023-03-23T09:50:27;5.85;;;1.52;;
49217;SDS011;35045;51.194;7.268;2023-03-23T09:53:14;6.63;;;1.88;;
49217;SDS011;35045;51.194;7.268;2023-03-23T09:55:45;8.23;;;2.10;;
49217;SDS011;35045;51.194;7.268;2023-03-23T09:58:24;8.88;;;1.73;;
49217;SDS011;35045;51.194;7.268;2023-03-23T10:01:00;8.35;;;1.70;;
49217;SDS011;35045;51.194;7.268;2023-03-23T10:03:48;5.28;;;1.50;;
49217;SDS011;35045;51.194;7.268;2023-03-23T10:06:14;7.35;;;1.98;;
49217;SDS011;35045;51.194;7.268;2023-03-23T10:08:49;5.28;;;1.73;;
49217;SDS011;35045;51.194;7.268;2023-03-23T10:17:20;8.20;;;1.95;;
49217;SDS011;35045;51.194;7.268;2023-03-23T10:22:26;6.90;;;1.80;;
49217;SDS011;35045;51.194;7.268;2023-03-23T10:27:59;9.73;;;2.25;;
49217;SDS011;35045;51.194;7.268;2023-03-23T10:30:29;8.18;;;2.17;;
49217;SDS011;35045;51.194;7.268;2023-03-23T10:35:37;6.72;;;1.80;;
49217;SDS011;35045;51.194;7.268;2023-03-23T10:38:11;6.45;;;1.77;;
49217;SDS011;35045;51.194;7.268;2023-03-23T10:40:45;8.88;;;2.10;;
49217;SDS011;35045;51.194;7.268;2023-03-23T10:43:14;7.35;;;2.05;;
49217;SDS011;35045;51.194;7.268;2023-03-23T10:48:11;7.05;;;2.05;;
49217;SDS011;35045;51.194;7.268;2023-03-23T10:50:40;6.82;;;1.90;;
49217;SDS011;35045;51.194;7.268;2023-03-23T10:53:19;5.88;;;2.20;;
49217;SDS011;35045;51.194;7.268;2023-03-23T10:55:48;9.20;;;2.55;;
49217;SDS011;35045;51.194;7.268;2023-03-23T11:00:49;6.78;;;2.25;;
49217;SDS011;35045;51.194;7.268;2023-03-23T11:05:41;8.07;;;2.05;;
49217;SDS011;35045;51.194;7.268;2023-03-23T11:08:13;6.65;;;1.88;;
49217;SDS011;35045;51.194;7.268;2023-03-23T11:10:53;9.75;;;1.88;;
49217;SDS011;35045;51.194;7.268;2023-03-23T11:13:27;8.32;;;2.05;;
49217;SDS011;35045;51.194;7.268;2023-03-23T11:15:55;7.93;;;2.05;;
49217;SDS011;35045;51.194;7.268;2023-03-23T11:18:36;8.10;;;1.90;;
49217;SDS011;35045;51.194;7.268;2023-03-23T11:21:03;8.32;;;2.25;;
49217;SDS011;35045;51.194;7.268;2023-03-23T11:23:32;6.72;;;2.20;;
49217;SDS011;35045;51.194;7.268;2023-03-23T11:31:41;9.70;;;2.50;;
49217;SDS011;35045;51.194;7.268;2023-03-23T11:34:21;5.60;;;1.85;;
49217;SDS011;35045;51.194;7.268;2023-03-23T11:36:50;6.97;;;2.10;;
49217;SDS011;35045;51.194;7.268;2023-03-23T11:39:25;7.15;;;2.53;;
49217;SDS011;35045;51.194;7.268;2023-03-23T11:41:52;6.68;;;2.25;;
49217;SDS011;35045;51.194;7.268;2023-03-23T11:44:19;6.50;;;2.13;;
49217;SDS011;35045;51.194;7.268;2023-03-23T11:46:52;7.75;;;2.30;;
49217;SDS011;35045;51.194;7.268;2023-03-23T11:52:44;11.30;;;3.75;;
49217;SDS011;35045;51.194;7.268;2023-03-23T11:55:25;5.88;;;2.50;;
49217;SDS011;35045;51.194;7.268;2023-03-23T11:58:00;7.00;;;2.47;;
49217;SDS011;35045;51.194;7.268;2023-03-23T12:00:29;8.07;;;3.05;;
49217;SDS011;35045;51.194;7.268;2023-03-23T12:02:59;7.15;;;2.47;;
49217;SDS011;35045;51.194;7.268;2023-03-23T12:08:17;5.50;;;2.28;;
49217;SDS011;35045;51.194;7.268;2023-03-23T12:10:55;6.78;;;2.42;;
49217;SDS011;35045;51.194;7.268;2023-03-23T12:13:50;8.93;;;2.60;;
49217;SDS011;35045;51.194;7.268;2023-03-23T12:16:39;7.43;;;2.85;;
49217;SDS011;35045;51.194;7.268;2023-03-23T12:27:36;7.32;;;3.53;;
49217;SDS011;35045;51.194;7.268;2023-03-23T12:33:09;8.23;;;3.80;;
49217;SDS011;35045;51.194;7.268;2023-03-23T12:47:20;7.65;;;4.82;;
49217;SDS011;35045;51.194;7.268;2023-03-23T12:49:31;7.93;;;4.55;;
49217;SDS011;35045;51.194;7.268;2023-03-23T12:52:21;8.20;;;4.32;;
49217;SDS011;35045;51.194;7.268;2023-03-23T12:54:56;10.35;;;4.07;;
49217;SDS011;35045;51.194;7.268;2023-03-23T12:57:59;7.30;;;3.92;;
49217;SDS011;35045;51.194;7.268;2023-03-23T13:00:32;7.45;;;3.90;;
49217;SDS011;35045;51.194;7.268;2023-03-23T13:03:19;8.48;;;3.78;;
49217;SDS011;35045;51.194;7.268;2023-03-23T13:05:52;9.73;;;4.50;;
49217;SDS011;35045;51.194;7.268;2023-03-23T13:08:23;8.45;;;3.90;;
49217;SDS011;35045;51.194;7.268;2023-03-23T13:10:55;7.43;;;3.80;;
49217;SDS011;35045;51.194;7.268;2023-03-23T13:13:40;10.13;;;3.53;;
49217;SDS011;35045;51.194;7.268;2023-03-23T13:18:44;8.55;;;3.67;;
49217;SDS011;35045;51.194;7.268;2023-03-23T13:21:30;7.50;;;3.30;;
49217;SDS011;35045;51.194;7.268;2023-03-23T13:23:58;7.30;;;3.55;;
49217;SDS011;35045;51.194;7.268;2023-03-23T13:26:27;10.10;;;3.70;;
49217;SDS011;35045;51.194;7.268;2023-03-23T13:28:59;8.90;;;3.60;;
49217;SDS011;35045;51.194;7.268;2023-03-23T13:31:33;8.30;;;3.88;;
49217;SDS011;35045;51.194;7.268;2023-03-23T13:34:02;8.57;;;3.70;;
49217;SDS011;35045;51.194;7.268;2023-03-23T13:36:37;6.43;;;3.05;;
49217;SDS011;35045;51.194;7.268;2023-03-23T13:39:05;10.40;;;3.67;;
49217;SDS011;35045;51.194;7.268;2023-03-23T13:44:54;7.38;;;3.67;;
49217;SDS011;35045;51.194;7.268;2023-03-23T13:50:05;10.55;;;3.88;;
49217;SDS011;35045;51.194;7.268;2023-03-23T14:00:45;9.63;;;3.72;;
49217;SDS011;35045;51.194;7.268;2023-03-23T14:03:25;9.30;;;4.30;;
49217;SDS011;35045;51.194;7.268;2023-03-23T14:08:37;6.80;;;3.40;;
49217;SDS011;35045;51.194;7.268;2023-03-23T14:11:14;6.88;;;3.13;;
49217;SDS011;35045;51.194;7.268;2023-03-23T14:13:43;7.68;;;3.58;;
49217;SDS011;35045;51.194;7.268;2023-03-23T14:16:22;8.07;;;3.15;;
49217;SDS011;35045;51.194;7.268;2023-03-23T14:18:50;6.85;;;2.90;;
49217;SDS011;35045;51.194;7.268;2023-03-23T14:21:21;5.72;;;2.22;;
49217;SDS011;35045;51.194;7.268;2023-03-23T14:23:55;4.95;;;2.30;;
49217;SDS011;35045;51.194;7.268;2023-03-23T14:26:23;7.40;;;2.42;;
49217;SDS011;35045;51.194;7.268;2023-03-23T14:31:19;4.53;;;1.80;;
49217;SDS011;35045;51.194;7.268;2023-03-23T14:33:50;5.72;;;2.13;;
49217;SDS011;35045;51.194;7.268;2023-03-23T14:36:20;5.93;;;1.88;;
49217;SDS011;35045;51.194;7.268;2023-03-23T14:39:04;4.47;;;1.90;;
49217;SDS011;35045;51.194;7.268;2023-03-23T14:41:36;4.22;;;1.50;;
49217;SDS011;35045;51.194;7.268;2023-03-23T14:44:03;6.30;;;1.90;;
49217;SDS011;35045;51.194;7.268;2023-03-23T14:46:31;5.78;;;1.83;;
49217;SDS011;35045;51.194;7.268;2023-03-23T14:48:56;5.40;;;1.92;;
49217;SDS011;35045;51.194;7.268;2023-03-23T14:51:24;7.80;;;2.35;;
49217;SDS011;35045;51.194;7.268;2023-03-23T14:53:49;7.65;;;2.30;;
49217;SDS011;35045;51.194;7.268;2023-03-23T14:56:18;6.97;;;2.00;;
49217;SDS011;35045;51.194;7.268;2023-03-23T14:58:47;5.07;;;2.10;;
49217;SDS011;35045;51.194;7.268;2023-03-23T15:01:15;6.47;;;2.33;;
49217;SDS011;35045;51.194;7.268;2023-03-23T15:03:51;4.78;;;1.77;;
49217;SDS011;35045;51.194;7.268;2023-03-23T15:06:30;5.53;;;1.90;;
49217;SDS011;35045;51.194;7.268;2023-03-23T15:09:00;8.85;;;2.50;;
49217;SDS011;35045;51.194;7.268;2023-03-23T15:11:37;6.43;;;2.28;;
49217;SDS011;35045;51.194;7.268;2023-03-23T15:14:14;4.80;;;1.95;;
49217;SDS011;35045;51.194;7.268;2023-03-23T15:16:45;6.68;;;2.20;;
49217;SDS011;35045;51.194;7.268;2023-03-23T15:19:16;7.95;;;2.35;;
49217;SDS011;35045;51.194;7.268;2023-03-23T15:21:54;6.38;;;2.20;;
49217;SDS011;35045;51.194;7.268;2023-03-23T15:24:31;7.50;;;2.03;;
49217;SDS011;35045;51.194;7.268;2023-03-23T15:27:03;5.75;;;2.10;;
49217;SDS011;35045;51.194;7.268;2023-03-23T15:29:45;7.80;;;2.20;;
49217;SDS011;35045;51.194;7.268;2023-03-23T15:33:01;7.93;;;2.75;;
49217;SDS011;35045;51.194;7.268;2023-03-23T15:35:14;8.38;;;2.35;;
49217;SDS011;35045;51.194;7.268;2023-03-23T15:37:57;6.03;;;2.35;;
49217;SDS011;35045;51.194;7.268;2023-03-23T15:40:24;7.47;;;2.65;;
49217;SDS011;35045;51.194;7.268;2023-03-23T15:45:50;8.93;;;2.45;;
49217;SDS011;35045;51.194;7.268;2023-03-23T15:48:30;6.30;;;2.30;;
49217;SDS011;35045;51.194;7.268;2023-03-23T15:51:16;6.15;;;2.47;;
49217;SDS011;35045;51.194;7.268;2023-03-23T15:53:43;7.15;;;2.25;;
49217;SDS011;35045;51.194;7.268;2023-03-23T15:56:09;8.68;;;2.35;;
49217;SDS011;35045;51.194;7.268;2023-03-23T15:58:36;7.40;;;2.10;;
49217;SDS011;35045;51.194;7.268;2023-03-23T16:01:05;5.82;;;1.83;;
49217;SDS011;35045;51.194;7.268;2023-03-23T16:06:02;6.85;;;2.30;;
49217;SDS011;35045;51.194;7.268;2023-03-23T16:08:28;8.00;;;2.40;;
49217;SDS011;35045;51.194;7.268;2023-03-23T16:10:55;5.22;;;1.95;;
49217;SDS011;35045;51.194;7.268;2023-03-23T16:13:21;5.13;;;2.17;;
49217;SDS011;35045;51.194;7.268;2023-03-23T16:15:48;6.95;;;2.20;;
49217;SDS011;35045;51.194;7.268;2023-03-23T16:18:16;7.60;;;2.22;;
49217;SDS011;35045;51.194;7.268;2023-03-23T16:20:44;5.35;;;2.08;;
49217;SDS011;35045;51.194;7.268;2023-03-23T16:23:11;5.03;;;2.30;;
49217;SDS011;35045;51.194;7.268;2023-03-23T16:25:37;7.75;;;2.80;;
49217;SDS011;35045;51.194;7.268;2023-03-23T16:28:03;7.95;;;2.50;;
49217;SDS011;35045;51.194;7.268;2023-03-23T16:30:32;6.75;;;2.78;;
49217;SDS011;35045;51.194;7.268;2023-03-23T16:32:59;9.48;;;3.08;;
49217;SDS011;35045;51.194;7.268;2023-03-23T16:35:26;5.93;;;2.70;;
49217;SDS011;35045;51.194;7.268;2023-03-23T16:37:53;7.78;;;2.47;;
49217;SDS011;35045;51.194;7.268;2023-03-23T16:40:20;10.50;;;3.42;;
49217;SDS011;35045;51.194;7.268;2023-03-23T16:42:48;8.00;;;3.40;;
49217;SDS011;35045;51.194;7.268;2023-03-23T16:45:15;6.40;;;2.72;;
49217;SDS011;35045;51.194;7.268;2023-03-23T16:47:42;6.82;;;2.80;;
49217;SDS011;35045;51.194;7.268;2023-03-23T16:50:10;7.35;;;2.47;;
49217;SDS011;35045;51.194;7.268;2023-03-23T16:52:39;8.65;;;2.80;;
49217;SDS011;35045;51.194;7.268;2023-03-23T16:55:07;7.07;;;2.30;;
49217;SDS011;35045;51.194;7.268;2023-03-23T16:57:35;9.65;;;2.92;;
49217;SDS011;35045;51.194;7.268;2023-03-23T17:00:03;8.57;;;2.40;;
49217;SDS011;35045;51.194;7.268;2023-03-23T17:02:33;5.63;;;2.10;;
49217;SDS011;35045;51.194;7.268;2023-03-23T17:05:04;7.15;;;2.28;;
49217;SDS011;35045;51.194;7.268;2023-03-23T17:07:31;6.22;;;2.63;;
49217;SDS011;35045;51.194;7.268;2023-03-23T17:09:57;6.82;;;2.33;;
49217;SDS011;35045;51.194;7.268;2023-03-23T17:12:24;9.05;;;2.58;;
49217;SDS011;35045;51.194;7.268;2023-03-23T17:14:51;8.05;;;2.58;;
49217;SDS011;35045;51.194;7.268;2023-03-23T17:17:18;7.20;;;2.50;;
49217;SDS011;35045;51.194;7.268;2023-03-23T17:19:44;6.43;;;2.20;;